Bea Schulte — VRGA2 — position and weather

sailwx.info

Track history (hours):
 
Tides and Currents Weather Stations Pressure Air Temp Water Temp Dewpoint Dewpoint Depression Visibility Wind Speed Wind Dir Waves Ship Positions

Bea Schulte

Last reported at 2016-Dec-10 23:25 UTC. Time now 2016-Dec-11 00:25 UTC.
Position S 23°58' W 046°17'.

Length 264 m; draft 10.1 m.

Type: Ship (hazmat cat A). MMSI: 477639500.

Date/timePositionNaut miles runAvg speedWind from/ knotsBaromVisibWave heightAir tempDewpointWater temp
2016-Dec-10 23:25S 23°58' W 046°17'0 0.0
2016-Dec-10 22:31S 23°58' W 046°17'0 0.0
2016-Dec-10 21:31S 23°58' W 046°17'0 0.0
2016-Dec-10 20:31S 23°58' W 046°17'0 0.0
2016-Dec-10 19:31S 23°58' W 046°17'0 0.0
2016-Dec-10 18:31S 23°58' W 046°17'0 0.0
2016-Dec-10 15:10S 23°58' W 046°17'0 0.0
2016-Dec-10 14:28S 23°58' W 046°17'0 0.0
2016-Dec-10 13:19S 23°58' W 046°17'0 0.0
2016-Dec-10 12:07S 23°58' W 046°17'0 0.0
2016-Dec-10 11:19S 23°58' W 046°17'0 0.0
2016-Dec-10 10:33S 23°58' W 046°17'5 5.3
2016-Dec-10 09:33S 24°02' W 046°21'3 2.9
2016-Dec-10 08:33S 24°04' W 046°23'1 1.5
2016-Dec-10 07:33S 24°06' W 046°24'7 6.7
2016-Dec-10 06:33S 24°12' W 046°26'1211.8
2016-Dec-10 05:33S 24°23' W 046°31'1313.2
2016-Dec-10 04:33S 24°35' W 046°37'156 3.7
2016-Dec-08 10:25S 26°41' W 048°18'1011.8
2016-Dec-08 09:33S 26°51' W 048°17'2412.0
2016-Dec-08 07:33S 27°15' W 048°14'1212.0
2016-Dec-08 06:33S 27°27' W 048°14'1212.1
2016-Dec-08 05:33S 27°39' W 048°16'1212.2
2016-Dec-08 04:33S 27°51' W 048°17'1312.6
2016-Dec-08 03:33S 28°03' W 048°23'  
2016-Dec-01 09:33S 24°36' W 046°34'2020.1
2016-Dec-01 08:33S 24°17' W 046°27'1717.0
2016-Dec-01 07:33S 24°01' W 046°20'4 1.5
2016-Dec-01 05:05S 23°58' W 046°18'0 0.0
2016-Dec-01 04:20S 23°58' W 046°18'0 0.0
2016-Dec-01 03:23S 23°58' W 046°18'0 0.0
2016-Dec-01 02:32S 23°58' W 046°18'0 0.0
2016-Dec-01 01:32S 23°58' W 046°18'0 0.0
2016-Dec-01 00:29S 23°58' W 046°18'0 0.0
2016-Nov-30 23:32S 23°58' W 046°18'  
Track history (hours):
 
Tides and Currents Weather Stations Pressure Air Temp Water Temp Dewpoint Dewpoint Depression Visibility Wind Speed Wind Dir Waves Ship Positions

Bea Schulte

Last reported at 2016-Dec-10 23:25 UTC. Time now 2016-Dec-11 00:25 UTC.
Position S 23°58' W 046°17'.

Length 264 m; draft 10.1 m.

Type: Ship (hazmat cat A). MMSI: 477639500.

Date/timePositionNaut miles runAvg speedWind from/ knotsBaromVisibWave heightAir tempDewpointWater temp
2016-Dec-10 23:25S 23°58' W 046°17'0 0.0
2016-Dec-10 22:31S 23°58' W 046°17'0 0.0
2016-Dec-10 21:31S 23°58' W 046°17'0 0.0
2016-Dec-10 20:31S 23°58' W 046°17'0 0.0
2016-Dec-10 19:31S 23°58' W 046°17'0 0.0
2016-Dec-10 18:31S 23°58' W 046°17'0 0.0
2016-Dec-10 15:10S 23°58' W 046°17'0 0.0
2016-Dec-10 14:28S 23°58' W 046°17'0 0.0
2016-Dec-10 13:19S 23°58' W 046°17'0 0.0
2016-Dec-10 12:07S 23°58' W 046°17'0 0.0
2016-Dec-10 11:19S 23°58' W 046°17'0 0.0
2016-Dec-10 10:33S 23°58' W 046°17'5 5.3
2016-Dec-10 09:33S 24°02' W 046°21'3 2.9
2016-Dec-10 08:33S 24°04' W 046°23'1 1.5
2016-Dec-10 07:33S 24°06' W 046°24'7 6.7
2016-Dec-10 06:33S 24°12' W 046°26'1211.8
2016-Dec-10 05:33S 24°23' W 046°31'1313.2
2016-Dec-10 04:33S 24°35' W 046°37'156 3.7
2016-Dec-08 10:25S 26°41' W 048°18'1011.8
2016-Dec-08 09:33S 26°51' W 048°17'2412.0
2016-Dec-08 07:33S 27°15' W 048°14'1212.0
2016-Dec-08 06:33S 27°27' W 048°14'1212.1
2016-Dec-08 05:33S 27°39' W 048°16'1212.2
2016-Dec-08 04:33S 27°51' W 048°17'1312.6
2016-Dec-08 03:33S 28°03' W 048°23'  
2016-Dec-01 09:33S 24°36' W 046°34'2020.1
2016-Dec-01 08:33S 24°17' W 046°27'1717.0
2016-Dec-01 07:33S 24°01' W 046°20'4 1.5
2016-Dec-01 05:05S 23°58' W 046°18'0 0.0
2016-Dec-01 04:20S 23°58' W 046°18'0 0.0
2016-Dec-01 03:23S 23°58' W 046°18'0 0.0
2016-Dec-01 02:32S 23°58' W 046°18'0 0.0
2016-Dec-01 01:32S 23°58' W 046°18'0 0.0
2016-Dec-01 00:29S 23°58' W 046°18'0 0.0
2016-Nov-30 23:32S 23°58' W 046°18'  

Dump ship's entire track history